Terminal Aerodrome Forecast
Issued by NWS Brownsville, TX

Home | Current Version | Previous Version | Text Only | Print | Product List | Glossary On
Versions: 1 2 3 4 5 6 7 8 9 10 11 12 13 14
064
FTUS44 KBRO 172349
TAFMFE
TAF
KMFE 172349Z 1800/1824 03008KT P6SM OVC050
     FM180400 34006KT P6SM BKN025
     FM180900 33007KT 6SM -DZ BR OVC015
     FM181800 33009KT 6SM -DZ BR OVC010=

USA.gov is the U.S. government's official web portal to all federal, state and local government web resources and services.